createdAt,value
2023-02-21T00:02:37.211Z,13.80
2023-02-21T00:05:22.805Z,13.57
2023-02-21T00:08:07.831Z,13.97
2023-02-21T00:10:53.003Z,14.30
2023-02-21T00:13:37.993Z,14.90
2023-02-21T00:16:23.043Z,14.90
2023-02-21T00:19:07.919Z,14.53
2023-02-21T00:21:52.934Z,15.47
2023-02-21T00:24:38.581Z,16.70
2023-02-21T00:27:23.642Z,16.10
2023-02-21T00:30:10.138Z,15.70
2023-02-21T00:32:55.435Z,16.30
2023-02-21T00:35:40.667Z,16.37
2023-02-21T00:38:26.710Z,15.80
2023-02-21T00:41:12.249Z,16.63
2023-02-21T00:43:57.272Z,14.73
2023-02-21T00:46:42.098Z,17.07
2023-02-21T00:49:28.099Z,16.03
2023-02-21T00:52:13.576Z,17.00
2023-02-21T00:54:58.882Z,16.67
2023-02-21T00:57:44.555Z,16.43
2023-02-21T01:00:36.321Z,16.70
2023-02-21T01:03:21.958Z,16.97
2023-02-21T01:06:07.260Z,16.30
2023-02-21T01:08:52.231Z,17.10
2023-02-21T01:11:39.214Z,17.43
2023-02-21T01:14:28.151Z,17.13
2023-02-21T01:17:13.965Z,17.40
2023-02-21T01:20:00.593Z,15.93
2023-02-21T01:22:46.116Z,17.97
2023-02-21T01:25:32.378Z,16.23
2023-02-21T01:28:17.764Z,16.20
2023-02-21T01:31:02.899Z,15.43
2023-02-21T01:33:47.926Z,16.33
2023-02-21T01:36:33.245Z,17.53
2023-02-21T01:39:18.282Z,16.90
2023-02-21T01:42:03.576Z,16.87
2023-02-21T01:44:57.644Z,17.53
2023-02-21T01:47:43.772Z,17.87
2023-02-21T01:50:45.283Z,17.47
2023-02-21T01:53:41.624Z,16.13
2023-02-21T01:56:28.212Z,17.47
2023-02-21T01:59:17.765Z,15.90
2023-02-21T02:02:11.558Z,15.87
2023-02-21T02:04:57.483Z,17.40
2023-02-21T02:07:42.393Z,16.93
2023-02-21T02:10:29.470Z,15.43
2023-02-21T02:13:20.304Z,15.37
2023-02-21T02:15:56.920Z,16.50
2023-02-21T02:18:36.902Z,14.77
2023-02-21T02:21:42.298Z,15.73
2023-02-21T02:24:38.031Z,15.43
2023-02-21T02:27:22.792Z,15.20
2023-02-21T02:30:03.383Z,16.27
2023-02-21T02:32:51.896Z,14.47
2023-02-21T02:35:26.056Z,15.93
2023-02-21T02:37:58.155Z,16.03
2023-02-21T02:40:27.247Z,16.97
2023-02-21T02:43:28.550Z,16.70
2023-02-21T02:46:02.345Z,16.30
2023-02-21T02:48:36.429Z,13.60
2023-02-21T02:51:07.461Z,13.17
2023-02-21T02:53:35.947Z,11.77
2023-02-21T02:56:05.798Z,12.57
2023-02-21T02:58:37.687Z,11.30
2023-02-21T03:01:17.354Z,11.50
2023-02-21T03:04:11.411Z,11.67
2023-02-21T03:07:02.700Z,11.27
2023-02-21T03:10:10.733Z,12.17
2023-02-21T03:12:48.988Z,12.27
2023-02-21T03:15:25.439Z,12.13
2023-02-21T03:17:58.557Z,13.03
2023-02-21T03:20:27.453Z,11.80
2023-02-21T03:22:55.893Z,12.30
2023-02-21T03:25:24.475Z,11.93
2023-02-21T03:27:53.543Z,12.83
2023-02-21T03:30:20.272Z,13.07
2023-02-21T03:32:51.504Z,12.67
2023-02-21T03:35:19.981Z,12.17
2023-02-21T03:37:49.691Z,12.60
2023-02-21T03:40:18.404Z,13.60
2023-02-21T03:42:44.953Z,13.73
2023-02-21T03:45:11.459Z,13.13
2023-02-21T03:47:37.928Z,13.83
2023-02-21T03:50:05.095Z,14.63
2023-02-21T03:52:31.584Z,14.83
2023-02-21T03:54:58.134Z,15.50
2023-02-21T03:57:24.715Z,15.37
2023-02-21T03:59:51.923Z,14.37
2023-02-21T04:02:19.386Z,13.40
2023-02-21T04:04:48.581Z,13.53
2023-02-21T04:07:16.821Z,13.47
2023-02-21T04:09:43.341Z,14.53
2023-02-21T04:12:10.794Z,15.47
2023-02-21T04:14:37.713Z,15.33
2023-02-21T04:17:04.625Z,15.50
2023-02-21T04:19:31.541Z,15.43
2023-02-21T04:21:58.186Z,15.10
2023-02-21T04:24:24.683Z,15.27
2023-02-21T04:26:51.238Z,16.00
2023-02-21T04:29:17.841Z,13.90
2023-02-21T04:31:44.443Z,14.90
2023-02-21T04:34:12.361Z,14.90
2023-02-21T04:36:39.559Z,15.47
2023-02-21T04:39:07.334Z,15.47
2023-02-21T04:41:34.300Z,14.87
2023-02-21T04:44:00.814Z,16.17
2023-02-21T04:46:27.337Z,14.07
2023-02-21T04:48:53.937Z,14.47
2023-02-21T04:51:23.145Z,14.90
2023-02-21T04:53:50.269Z,15.53
2023-02-21T04:56:19.287Z,16.03
2023-02-21T04:58:46.236Z,15.90
2023-02-21T05:01:14.121Z,16.07
2023-02-21T05:03:40.873Z,15.10
2023-02-21T05:06:07.995Z,15.77
2023-02-21T05:08:36.242Z,15.97
2023-02-21T05:11:03.218Z,15.07
2023-02-21T05:13:29.686Z,13.77
2023-02-21T05:15:56.248Z,16.23
2023-02-21T05:18:23.297Z,15.20
2023-02-21T05:20:50.270Z,15.07
2023-02-21T05:23:19.048Z,14.70
2023-02-21T05:25:48.607Z,17.27
2023-02-21T05:28:15.342Z,15.43
2023-02-21T05:30:41.870Z,15.30
2023-02-21T05:33:08.414Z,14.17
2023-02-21T05:35:34.904Z,14.50
2023-02-21T05:38:01.369Z,15.10
2023-02-21T05:40:27.877Z,15.97
2023-02-21T05:42:54.337Z,15.80
2023-02-21T05:45:21.031Z,14.73
2023-02-21T05:47:47.466Z,15.03
2023-02-21T05:50:13.910Z,14.53
2023-02-21T05:52:40.384Z,15.87
2023-02-21T05:55:06.996Z,15.13
2023-02-21T05:57:38.891Z,15.03
2023-02-21T06:00:06.148Z,15.87
2023-02-21T06:02:32.654Z,15.43
2023-02-21T06:04:59.177Z,15.30
2023-02-21T06:07:25.826Z,17.23
2023-02-21T06:09:52.337Z,14.77
2023-02-21T06:12:18.824Z,15.47
2023-02-21T06:14:45.220Z,16.17
2023-02-21T06:17:11.672Z,14.83
2023-02-21T06:19:38.112Z,16.40
2023-02-21T06:22:04.532Z,16.03
2023-02-21T06:24:30.950Z,17.37
2023-02-21T06:26:57.481Z,15.73
2023-02-21T06:29:23.897Z,17.67
2023-02-21T06:31:50.441Z,17.30
2023-02-21T06:34:16.938Z,16.10
2023-02-21T06:36:43.475Z,15.27
2023-02-21T06:39:10.887Z,17.00
2023-02-21T06:41:37.368Z,16.70
2023-02-21T06:44:03.870Z,15.23
2023-02-21T06:46:30.870Z,15.23
2023-02-21T06:48:57.780Z,15.60
2023-02-21T06:51:29.524Z,17.23
2023-02-21T06:53:57.693Z,17.70
2023-02-21T06:56:24.251Z,17.43
2023-02-21T06:58:50.732Z,15.90
2023-02-21T07:01:20.233Z,15.60
2023-02-21T07:03:47.705Z,16.97
2023-02-21T07:06:14.363Z,16.40
2023-02-21T07:08:41.126Z,17.90
2023-02-21T07:11:07.630Z,18.70
2023-02-21T07:13:34.216Z,18.03
2023-02-21T07:16:02.710Z,16.83
2023-02-21T07:18:29.452Z,15.63
2023-02-21T07:20:55.970Z,16.60
2023-02-21T07:23:22.540Z,16.90
2023-02-21T07:25:49.074Z,17.13
2023-02-21T07:28:15.652Z,17.20
2023-02-21T07:30:42.277Z,17.63
2023-02-21T07:33:08.835Z,17.43
2023-02-21T07:35:35.335Z,16.57
2023-02-21T07:38:01.856Z,17.13
2023-02-21T07:40:28.296Z,15.63
2023-02-21T07:42:55.294Z,17.10
2023-02-21T07:45:21.943Z,18.13
2023-02-21T07:47:51.065Z,17.47
2023-02-21T07:50:17.679Z,16.40
2023-02-21T07:52:45.474Z,17.97
2023-02-21T07:55:13.471Z,17.30
2023-02-21T07:57:39.921Z,19.07
2023-02-21T08:00:07.025Z,17.47
2023-02-21T08:02:33.470Z,16.43
2023-02-21T08:05:00.042Z,16.10
2023-02-21T08:07:26.544Z,15.80
2023-02-21T08:09:53.051Z,16.17
2023-02-21T08:12:19.520Z,15.37
2023-02-21T08:14:46.022Z,15.23
2023-02-21T08:17:14.032Z,15.57
2023-02-21T08:19:40.584Z,15.73
2023-02-21T08:22:07.023Z,15.63
2023-02-21T08:24:33.454Z,16.07
2023-02-21T08:26:59.960Z,14.20
2023-02-21T08:29:26.522Z,14.83
2023-02-21T08:31:53.015Z,15.80
2023-02-21T08:34:19.458Z,16.63
2023-02-21T08:36:45.972Z,15.33
2023-02-21T08:39:12.548Z,13.57
2023-02-21T08:41:44.816Z,16.00
2023-02-21T08:44:16.223Z,13.10
2023-02-21T08:46:43.502Z,14.67
2023-02-21T08:49:10.754Z,14.70
2023-02-21T08:51:37.529Z,14.93
2023-02-21T08:54:04.246Z,15.43
2023-02-21T08:56:30.991Z,15.50
2023-02-21T08:58:57.997Z,17.43
2023-02-21T09:01:25.402Z,14.00
2023-02-21T09:03:51.927Z,14.27
2023-02-21T09:06:18.829Z,15.77
2023-02-21T09:08:45.382Z,15.43
2023-02-21T09:11:11.874Z,14.87
2023-02-21T09:13:38.512Z,13.37
2023-02-21T09:16:05.368Z,14.73
2023-02-21T09:18:32.295Z,13.50
2023-02-21T09:20:59.291Z,13.23
2023-02-21T09:23:28.204Z,13.63
2023-02-21T09:25:55.096Z,14.47
2023-02-21T09:28:22.379Z,13.80
2023-02-21T09:30:49.516Z,14.60
2023-02-21T09:33:16.678Z,15.37
2023-02-21T09:35:43.157Z,14.67
2023-02-21T09:38:09.741Z,15.37
2023-02-21T09:40:39.148Z,13.40
2023-02-21T09:43:11.774Z,12.87
2023-02-21T09:45:38.783Z,13.53
2023-02-21T09:48:14.134Z,15.00
2023-02-21T09:50:50.196Z,15.83
2023-02-21T09:53:22.460Z,15.27
2023-02-21T09:55:51.772Z,15.10
2023-02-21T09:58:20.355Z,12.40
2023-02-21T10:00:47.638Z,14.77
2023-02-21T10:03:32.793Z,14.40
2023-02-21T10:06:12.226Z,14.57
2023-02-21T10:08:53.788Z,14.73
2023-02-21T10:11:31.356Z,13.30
2023-02-21T10:14:23.225Z,14.90
2023-02-21T10:17:31.484Z,16.70
2023-02-21T10:20:04.343Z,15.47
2023-02-21T10:22:37.866Z,14.13
2023-02-21T10:25:21.431Z,13.43
2023-02-21T10:27:48.248Z,15.90
2023-02-21T10:30:40.625Z,13.80
2023-02-21T10:33:08.284Z,15.67
2023-02-21T10:35:38.707Z,13.60
2023-02-21T10:38:13.226Z,14.83
2023-02-21T10:41:02.411Z,13.63
2023-02-21T10:43:36.783Z,15.27
2023-02-21T10:46:13.536Z,14.53
2023-02-21T10:48:42.880Z,13.57
2023-02-21T10:51:12.442Z,14.23
2023-02-21T10:53:41.380Z,14.30
2023-02-21T10:56:18.990Z,19.07
2023-02-21T10:58:57.632Z,16.53
2023-02-21T11:01:26.888Z,14.60
2023-02-21T11:03:56.832Z,15.43
2023-02-21T11:06:39.922Z,13.37
2023-02-21T11:09:42.962Z,12.20
2023-02-21T11:12:26.874Z,13.33
2023-02-21T11:14:53.359Z,11.37
2023-02-21T11:17:34.060Z,12.17
2023-02-21T11:20:09.674Z,10.83
2023-02-21T11:22:38.994Z,9.87
2023-02-21T11:25:18.815Z,9.27
2023-02-21T11:27:46.551Z,9.00
2023-02-21T11:30:21.793Z,8.27
2023-02-21T11:32:57.088Z,9.20
2023-02-21T11:35:34.849Z,9.40
2023-02-21T11:38:08.547Z,8.63
2023-02-21T11:40:45.767Z,9.43
2023-02-21T11:43:17.858Z,8.43
2023-02-21T11:46:18.465Z,8.90
2023-02-21T11:48:58.517Z,9.67
2023-02-21T11:51:43.559Z,8.83
2023-02-21T11:54:10.790Z,7.97
2023-02-21T11:56:43.252Z,9.47
2023-02-21T11:59:17.762Z,9.03
2023-02-21T12:02:18.587Z,10.17
2023-02-21T12:05:06.620Z,9.20
2023-02-21T12:08:17.631Z,8.47
2023-02-21T12:10:49.834Z,9.20
2023-02-21T12:13:34.982Z,9.87
2023-02-21T12:16:28.183Z,9.63
2023-02-21T12:19:25.592Z,8.43
2023-02-21T12:22:11.442Z,7.13
2023-02-21T12:25:02.507Z,8.13
2023-02-21T12:28:06.973Z,8.07
2023-02-21T12:30:36.663Z,7.53
2023-02-21T12:33:16.231Z,8.17
2023-02-21T12:36:02.144Z,7.43
2023-02-21T12:38:53.695Z,9.13
2023-02-21T12:41:38.717Z,8.17
2023-02-21T12:44:14.190Z,8.27
2023-02-21T12:46:43.413Z,8.63
2023-02-21T12:49:46.525Z,8.63
2023-02-21T12:52:22.777Z,9.40
2023-02-21T12:54:58.822Z,8.37
2023-02-21T12:57:32.927Z,9.07
2023-02-21T13:00:12.644Z,8.53
2023-02-21T13:02:57.928Z,8.60
2023-02-21T13:05:39.968Z,10.07
2023-02-21T13:08:13.968Z,8.00
2023-02-21T13:10:52.934Z,7.77
2023-02-21T13:13:25.956Z,8.03
2023-02-21T13:15:54.114Z,9.47
2023-02-21T13:18:32.460Z,7.20
2023-02-21T13:20:58.805Z,7.53
2023-02-21T13:24:02.614Z,7.43
2023-02-21T13:26:50.523Z,7.10
2023-02-21T13:29:28.404Z,7.20
2023-02-21T13:32:06.495Z,7.53
2023-02-21T13:34:45.249Z,7.73
2023-02-21T13:37:19.351Z,7.43
2023-02-21T13:39:54.113Z,7.27
2023-02-21T13:42:24.617Z,8.13
2023-02-21T13:45:11.846Z,8.37
2023-02-21T13:47:53.907Z,8.80
2023-02-21T13:50:45.196Z,9.33
2023-02-21T13:53:57.972Z,8.50
2023-02-21T13:56:41.756Z,7.87
2023-02-21T13:59:23.160Z,8.60
2023-02-21T14:01:50.715Z,8.60
2023-02-21T14:04:45.067Z,7.37
2023-02-21T14:07:11.554Z,8.07
2023-02-21T14:09:41.532Z,8.17
2023-02-21T14:12:08.992Z,6.93
2023-02-21T14:14:39.651Z,7.40
2023-02-21T14:17:09.554Z,8.53
2023-02-21T14:19:39.014Z,7.53
2023-02-21T14:22:10.552Z,7.53
2023-02-21T14:24:40.692Z,6.90
2023-02-21T14:29:37.481Z,7.93
2023-02-21T14:32:04.409Z,7.63
2023-02-21T14:34:49.929Z,8.13
2023-02-21T14:37:31.586Z,7.20
2023-02-21T14:40:02.352Z,8.20
2023-02-21T14:43:02.514Z,7.00
2023-02-21T14:45:50.109Z,7.73
2023-02-21T14:48:38.509Z,6.53
2023-02-21T14:51:19.943Z,8.63
2023-02-21T14:53:57.130Z,8.53
2023-02-21T14:56:55.869Z,8.20
2023-02-21T14:59:35.416Z,8.37
2023-02-21T15:02:15.389Z,9.20
2023-02-21T15:04:49.730Z,8.53
2023-02-21T15:07:48.615Z,8.80
2023-02-21T15:10:17.497Z,8.20
2023-02-21T15:12:59.124Z,8.53
2023-02-21T15:15:32.869Z,7.93
2023-02-21T15:18:01.900Z,7.93
2023-02-21T15:20:30.305Z,7.60
2023-02-21T15:23:15.713Z,8.20
2023-02-21T15:25:44.784Z,9.43
2023-02-21T15:28:31.593Z,9.13
2023-02-21T15:31:06.123Z,9.13
2023-02-21T15:33:35.477Z,9.67
2023-02-21T15:36:06.917Z,11.80
2023-02-21T15:38:52.454Z,9.60
2023-02-21T15:41:35.848Z,9.17
2023-02-21T15:44:21.161Z,9.73
2023-02-21T15:46:54.008Z,8.00
2023-02-21T15:50:02.385Z,9.43
2023-02-21T15:52:35.490Z,10.13
2023-02-21T15:55:20.566Z,11.00
2023-02-21T15:57:58.366Z,8.27
2023-02-21T16:00:36.478Z,9.57
2023-02-21T16:03:29.322Z,9.13
2023-02-21T16:06:19.689Z,9.40
2023-02-21T16:09:21.930Z,8.50
2023-02-21T16:11:52.240Z,9.57
2023-02-21T16:14:55.087Z,9.80
2023-02-21T16:17:21.687Z,9.73
2023-02-21T16:19:56.077Z,9.53
2023-02-21T16:22:29.743Z,11.47
2023-02-21T16:25:11.716Z,10.17
2023-02-21T16:27:53.094Z,8.57
2023-02-21T16:30:25.687Z,8.70
2023-02-21T16:32:54.497Z,9.87
2023-02-21T16:35:24.008Z,10.57
2023-02-21T16:37:53.678Z,9.17
2023-02-21T16:40:27.431Z,8.37
2023-02-21T16:42:55.867Z,8.63
2023-02-21T16:45:23.542Z,9.83
2023-02-21T16:47:55.260Z,8.93
2023-02-21T16:50:32.567Z,7.43
2023-02-21T16:53:00.354Z,8.60
2023-02-21T16:55:27.582Z,7.23
2023-02-21T16:57:59.244Z,9.53
2023-02-21T17:00:25.847Z,10.87
2023-02-21T17:02:53.455Z,9.23
2023-02-21T17:05:21.627Z,7.87
2023-02-21T17:07:49.753Z,8.90
2023-02-21T17:10:16.272Z,8.60
2023-02-21T17:12:42.772Z,8.30
2023-02-21T17:15:10.990Z,9.77
2023-02-21T17:17:38.749Z,10.67
2023-02-21T17:20:07.046Z,9.43
2023-02-21T17:22:33.751Z,11.17
2023-02-21T17:25:00.440Z,9.47
2023-02-21T17:27:27.189Z,10.03
2023-02-21T17:29:53.646Z,9.10
2023-02-21T17:32:20.222Z,11.30
2023-02-21T17:34:46.731Z,10.47
2023-02-21T17:37:13.358Z,10.00
2023-02-21T17:39:39.986Z,11.50
2023-02-21T17:42:06.461Z,13.30
2023-02-21T17:44:33.558Z,11.63
2023-02-21T17:47:00.058Z,12.33
2023-02-21T17:49:28.042Z,11.60
2023-02-21T17:51:55.068Z,10.87
2023-02-21T17:54:24.035Z,12.40
2023-02-21T17:56:51.413Z,11.27
2023-02-21T17:59:18.753Z,11.57
2023-02-21T18:01:45.553Z,11.37
2023-02-21T18:04:13.710Z,12.17
2023-02-21T18:06:41.382Z,10.27
2023-02-21T18:09:08.065Z,12.43
2023-02-21T18:11:37.806Z,11.37
2023-02-21T18:14:05.218Z,10.90
2023-02-21T18:16:32.118Z,10.63
2023-02-21T18:18:58.841Z,11.90
2023-02-21T18:21:27.351Z,10.40
2023-02-21T18:23:54.237Z,10.77
2023-02-21T18:26:20.697Z,11.50
2023-02-21T18:28:47.247Z,11.17
2023-02-21T18:31:18.808Z,11.37
2023-02-21T18:33:46.220Z,12.00
2023-02-21T18:36:12.686Z,11.80
2023-02-21T18:38:40.740Z,11.50
2023-02-21T18:41:12.630Z,11.23
2023-02-21T18:43:40.673Z,11.90
2023-02-21T18:46:13.739Z,12.17
2023-02-21T18:48:45.596Z,12.20
2023-02-21T18:51:13.549Z,12.90
2023-02-21T18:53:42.756Z,13.43
2023-02-21T18:56:13.955Z,12.10
2023-02-21T18:58:40.571Z,12.50
2023-02-21T19:01:09.226Z,10.90
2023-02-21T19:03:36.781Z,12.63
2023-02-21T19:06:03.507Z,12.77
2023-02-21T19:08:29.995Z,11.87
2023-02-21T19:10:56.468Z,12.20
2023-02-21T19:13:22.993Z,12.77
2023-02-21T19:15:49.404Z,10.80
2023-02-21T19:18:16.861Z,13.03
2023-02-21T19:20:43.747Z,12.67
2023-02-21T19:23:11.970Z,12.13
2023-02-21T19:25:38.468Z,12.77
2023-02-21T19:28:06.848Z,11.97
2023-02-21T19:30:36.497Z,11.70
2023-02-21T19:33:05.690Z,9.93
2023-02-21T19:35:33.886Z,11.13
2023-02-21T19:38:04.472Z,11.63
2023-02-21T19:40:31.177Z,12.27
2023-02-21T19:42:57.739Z,10.80
2023-02-21T19:45:24.292Z,13.63
2023-02-21T19:47:50.834Z,12.03
2023-02-21T19:50:17.653Z,11.60
2023-02-21T19:52:46.198Z,10.87
2023-02-21T19:55:13.696Z,12.27
2023-02-21T19:57:40.102Z,11.50
2023-02-21T20:00:10.842Z,12.17
2023-02-21T20:02:37.387Z,13.10
2023-02-21T20:05:04.369Z,11.53
2023-02-21T20:07:30.797Z,10.47
2023-02-21T20:09:57.344Z,12.83
2023-02-21T20:12:23.890Z,12.27
2023-02-21T20:14:50.719Z,13.17
2023-02-21T20:17:18.080Z,14.03
2023-02-21T20:19:44.977Z,13.63
2023-02-21T20:22:11.793Z,14.33
2023-02-21T20:24:38.384Z,13.27
2023-02-21T20:27:04.914Z,12.10
2023-02-21T20:29:31.386Z,13.33
2023-02-21T20:31:58.895Z,14.00
2023-02-21T20:34:25.472Z,13.77
2023-02-21T20:36:51.881Z,13.93
2023-02-21T20:39:28.389Z,15.73
2023-02-21T20:41:55.675Z,14.77
2023-02-21T20:44:22.555Z,13.60
2023-02-21T20:46:49.248Z,13.47
2023-02-21T20:49:15.922Z,14.73
2023-02-21T20:51:43.594Z,13.17
2023-02-21T20:54:19.705Z,14.43
2023-02-21T20:56:47.536Z,16.23
2023-02-21T20:59:21.144Z,14.70
2023-02-21T21:01:48.647Z,12.37
2023-02-21T21:04:20.862Z,12.50
2023-02-21T21:06:48.173Z,13.80
2023-02-21T21:09:17.807Z,14.37
2023-02-21T21:11:47.841Z,12.57
2023-02-21T21:14:16.303Z,14.03
2023-02-21T21:16:43.091Z,12.77
2023-02-21T21:19:09.717Z,13.73
2023-02-21T21:21:37.803Z,12.07
2023-02-21T21:24:07.148Z,13.17
2023-02-21T21:26:34.013Z,14.03
2023-02-21T21:29:01.401Z,11.53
2023-02-21T21:31:27.960Z,13.83
2023-02-21T21:33:56.393Z,12.93
2023-02-21T21:36:23.335Z,12.63
2023-02-21T21:38:49.733Z,11.83
2023-02-21T21:41:16.487Z,12.53
2023-02-21T21:43:45.833Z,13.07
2023-02-21T21:46:13.859Z,13.40
2023-02-21T21:48:44.523Z,12.30
2023-02-21T21:51:11.669Z,13.23
2023-02-21T21:53:40.012Z,13.30
2023-02-21T21:56:11.397Z,12.90
2023-02-21T21:58:37.921Z,13.37
2023-02-21T22:01:07.692Z,12.13
2023-02-21T22:03:34.719Z,11.77
2023-02-21T22:06:01.384Z,10.70
2023-02-21T22:08:28.514Z,13.37
2023-02-21T22:10:55.021Z,12.33
2023-02-21T22:13:21.790Z,11.83
2023-02-21T22:15:48.879Z,11.77
2023-02-21T22:18:19.753Z,11.90
2023-02-21T22:20:50.261Z,13.00
2023-02-21T22:23:21.204Z,11.03
2023-02-21T22:25:48.356Z,11.30
2023-02-21T22:28:14.955Z,11.93
2023-02-21T22:30:41.739Z,11.03
2023-02-21T22:33:13.490Z,10.90
2023-02-21T22:35:41.397Z,10.20
2023-02-21T22:38:14.103Z,10.97
2023-02-21T22:40:41.837Z,10.40
2023-02-21T22:43:09.084Z,10.67
2023-02-21T22:45:36.526Z,9.93
2023-02-21T22:48:05.822Z,11.33
2023-02-21T22:50:36.834Z,11.03
2023-02-21T22:53:08.285Z,11.77
2023-02-21T22:55:37.262Z,9.67
2023-02-21T22:58:07.368Z,10.50
2023-02-21T23:00:35.079Z,9.77
2023-02-21T23:03:13.185Z,10.33
2023-02-21T23:05:45.223Z,9.30
2023-02-21T23:08:16.819Z,8.57
2023-02-21T23:10:43.703Z,9.97
2023-02-21T23:13:18.196Z,9.40
2023-02-21T23:15:45.918Z,9.30
2023-02-21T23:18:20.637Z,10.13
2023-02-21T23:20:49.379Z,9.63
2023-02-21T23:23:15.818Z,8.77
2023-02-21T23:25:42.303Z,8.97
2023-02-21T23:28:12.203Z,8.87
2023-02-21T23:30:43.153Z,9.07
2023-02-21T23:33:22.990Z,8.83
2023-02-21T23:35:51.889Z,8.03
2023-02-21T23:38:22.563Z,9.20
2023-02-21T23:40:58.082Z,8.10
2023-02-21T23:43:29.202Z,9.17
2023-02-21T23:45:58.033Z,9.63
2023-02-21T23:48:24.602Z,8.40
2023-02-21T23:50:51.667Z,8.77
2023-02-21T23:53:22.659Z,9.13
2023-02-21T23:55:49.776Z,9.30
2023-02-21T23:58:19.052Z,8.27
